Time;durP1;ratioP1;P1;durP2;ratioP2;P2;SDS_P1;SDS_P2;PMS_P1;PMS_P2;Temp;Humidity;BMP_temperature;BMP_pressure;BME280_temperature;BME280_humidity;BME280_pressure;Samples;Min_cycle;Max_cycle;Signal;HPM_P1;HPM_P2
2020/12/02 00:00:27;;;;;;;22.57;9.40;;;;;;;4.21;100.00;98185.00;5069948;28;20269;-76
2020/12/02 00:02:57;;;;;;;24.00;9.93;;;;;;;4.25;100.00;98179.22;5071068;28;20193;-74
2020/12/02 00:05:24;;;;;;;21.30;9.40;;;;;;;4.49;100.00;98182.00;5065171;28;20219;-74
2020/12/02 00:07:53;;;;;;;22.67;10.07;;;;;;;4.22;100.00;98181.38;5072778;28;20208;-74
2020/12/02 00:10:20;;;;;;;25.90;9.80;;;;;;;4.10;100.00;98180.78;5073137;28;20662;-74
2020/12/02 00:12:48;;;;;;;20.30;8.90;;;;;;;4.16;100.00;98187.28;5073801;28;20193;-74
2020/12/02 00:15:15;;;;;;;20.93;9.17;;;;;;;4.14;100.00;98182.16;5078374;28;20197;-74
2020/12/02 00:17:42;;;;;;;26.23;9.07;;;;;;;4.46;100.00;98181.47;5073482;28;20201;-74
2020/12/02 00:20:09;;;;;;;25.70;9.57;;;;;;;4.23;100.00;98183.84;5073206;28;20279;-74
2020/12/02 00:22:36;;;;;;;22.93;9.37;;;;;;;4.07;100.00;98189.03;5072673;28;20200;-75
2020/12/02 00:25:05;;;;;;;23.50;9.20;;;;;;;3.99;100.00;98196.06;5074579;28;20201;-73
2020/12/02 00:27:33;;;;;;;25.27;9.30;;;;;;;3.86;100.00;98195.66;5073572;28;20283;-75
2020/12/02 00:30:00;;;;;;;21.53;8.80;;;;;;;4.31;100.00;98194.44;5072927;28;20209;-75
2020/12/02 00:32:30;;;;;;;25.37;9.73;;;;;;;3.90;100.00;98187.28;5073857;28;20248;-74
2020/12/02 00:34:57;;;;;;;24.30;8.80;;;;;;;4.34;100.00;98183.56;5073737;28;20198;-73
2020/12/02 00:37:25;;;;;;;22.00;9.53;;;;;;;4.13;100.00;98182.28;5074298;28;20212;-75
2020/12/02 00:39:52;;;;;;;23.97;8.77;;;;;;;4.12;100.00;98176.16;5073732;28;20679;-75
2020/12/02 00:42:19;;;;;;;23.87;9.17;;;;;;;4.08;100.00;98174.84;5073533;28;20241;-75
2020/12/02 00:44:47;;;;;;;23.20;9.37;;;;;;;3.93;100.00;98178.22;5073594;28;20197;-75
2020/12/02 00:47:18;;;;;;;22.17;9.43;;;;;;;3.94;100.00;98180.69;5073943;28;20574;-74
2020/12/02 00:49:47;;;;;;;20.27;9.23;;;;;;;3.70;100.00;98172.63;5073671;28;20208;-75
2020/12/02 00:52:14;;;;;;;25.77;10.03;;;;;;;3.84;100.00;98177.34;5072867;28;20233;-73
2020/12/02 00:54:41;;;;;;;23.23;8.53;;;;;;;3.94;100.00;98172.78;5073397;28;20202;-76
2020/12/02 00:57:08;;;;;;;24.37;9.53;;;;;;;3.98;100.00;98174.13;5073644;28;20251;-74
2020/12/02 00:59:37;;;;;;;21.93;9.37;;;;;;;4.04;100.00;98177.94;5072986;28;20212;-76
2020/12/02 01:02:11;;;;;;;25.07;8.80;;;;;;;3.93;100.00;98176.41;5071691;28;20517;-73
2020/12/02 01:04:39;;;;;;;25.03;10.43;;;;;;;4.08;100.00;98177.50;5073349;28;20193;-75
2020/12/02 01:07:05;;;;;;;28.07;9.13;;;;;;;4.49;100.00;98167.94;5072586;28;20232;-73
2020/12/02 01:09:32;;;;;;;21.67;9.33;;;;;;;3.96;100.00;98176.09;5073419;28;20224;-75
2020/12/02 01:12:02;;;;;;;24.27;9.00;;;;;;;4.31;100.00;98175.13;5072281;28;20218;-75
2020/12/02 01:14:30;;;;;;;22.43;9.67;;;;;;;4.33;100.00;98176.63;5073410;28;20208;-75
2020/12/02 01:16:59;;;;;;;27.40;10.23;;;;;;;4.28;100.00;98172.81;5071915;28;20200;-73
2020/12/02 01:19:29;;;;;;;25.57;10.10;;;;;;;4.14;100.00;98170.75;5073703;28;20296;-73
2020/12/02 01:21:58;;;;;;;22.83;10.20;;;;;;;4.08;100.00;98172.22;5072793;28;20221;-73
2020/12/02 01:24:27;;;;;;;22.90;8.70;;;;;;;4.12;100.00;98178.81;5073566;28;20205;-73
2020/12/02 01:26:57;;;;;;;21.77;9.33;;;;;;;4.21;100.00;98171.78;5072679;28;20259;-76
2020/12/02 01:29:25;;;;;;;26.63;10.07;;;;;;;3.80;100.00;98172.50;5072306;28;20590;-75
2020/12/02 01:31:54;;;;;;;22.77;8.17;;;;;;;4.13;100.00;98171.72;5072497;28;20227;-76
2020/12/02 01:34:22;;;;;;;26.77;10.20;;;;;;;3.70;100.00;98180.53;5072754;28;20206;-75
2020/12/02 01:37:19;;;;;;;25.37;9.67;;;;;;;3.85;100.00;98171.06;5072752;28;20205;-74
2020/12/02 01:39:52;;;;;;;26.17;10.23;;;;;;;3.90;100.00;98171.44;5070505;28;20203;-74
2020/12/02 01:42:19;;;;;;;17.23;7.93;;;;;;;4.23;100.00;98175.94;5072226;28;20241;-74
2020/12/02 01:44:46;;;;;;;22.03;9.60;;;;;;;4.00;100.00;98172.16;5072372;28;20204;-75
2020/12/02 01:47:36;;;;;;;23.63;9.53;;;;;;;4.12;100.00;98168.25;5072585;28;20217;-74
2020/12/02 01:50:07;;;;;;;20.93;9.53;;;;;;;4.37;100.00;98167.38;5065848;28;20197;-74
2020/12/02 01:52:51;;;;;;;21.57;8.33;;;;;;;4.47;100.00;98165.44;5071792;28;20835;-73
2020/12/02 01:55:20;;;;;;;24.30;9.63;;;;;;;4.23;100.00;98169.81;5069018;28;20201;-74
2020/12/02 01:57:50;;;;;;;18.17;8.30;;;;;;;4.13;100.00;98163.81;5072097;28;20197;-74
2020/12/02 02:00:20;;;;;;;17.27;8.10;;;;;;;4.16;100.00;98166.97;5071014;28;20650;-74
2020/12/02 02:02:55;;;;;;;19.27;8.57;;;;;;;4.19;100.00;98168.47;5072091;28;20208;-74
2020/12/02 02:05:26;;;;;;;19.53;8.60;;;;;;;4.07;100.00;98159.16;5072119;28;20199;-74
2020/12/02 02:07:54;;;;;;;19.97;8.73;;;;;;;4.03;100.00;98160.44;5071997;28;20223;-74
2020/12/02 02:10:25;;;;;;;18.73;8.70;;;;;;;3.86;100.00;98158.72;5072210;28;20203;-76
2020/12/02 02:13:37;;;;;;;19.70;8.30;;;;;;;4.01;100.00;98160.59;5071992;28;20194;-74
2020/12/02 02:16:09;;;;;;;15.33;8.80;;;;;;;3.94;100.00;98164.03;5065643;28;20190;-75
2020/12/02 02:18:36;;;;;;;19.03;9.10;;;;;;;4.10;100.00;98162.31;5071792;28;20564;-74
2020/12/02 02:21:06;;;;;;;20.90;9.53;;;;;;;3.94;100.00;98156.94;5072047;28;20220;-75
2020/12/02 02:23:34;;;;;;;19.07;8.83;;;;;;;4.36;100.00;98159.66;5071705;28;20201;-76
2020/12/02 02:26:10;;;;;;;21.67;9.33;;;;;;;3.93;100.00;98154.44;5072124;28;20775;-74
2020/12/02 02:28:40;;;;;;;18.43;8.63;;;;;;;4.01;100.00;98160.59;5067532;28;20194;-80
2020/12/02 02:31:13;;;;;;;24.10;10.13;;;;;;;3.68;100.00;98152.63;5071648;28;20663;-75
2020/12/02 02:33:40;;;;;;;16.87;8.83;;;;;;;4.07;100.00;98152.06;5068500;28;20189;-75
2020/12/02 02:36:10;;;;;;;24.77;10.13;;;;;;;3.85;100.00;98147.31;5072066;28;20219;-75
2020/12/02 02:38:38;;;;;;;21.40;10.10;;;;;;;3.85;100.00;98152.59;5067976;28;20193;-79
2020/12/02 02:41:06;;;;;;;23.20;9.03;;;;;;;3.93;100.00;98147.38;5071604;28;20224;-76
2020/12/02 02:43:33;;;;;;;22.93;9.63;;;;;;;4.07;100.00;98141.47;5071858;28;20185;-74
2020/12/02 02:46:00;;;;;;;21.70;9.67;;;;;;;3.73;100.00;98132.72;5071286;28;20213;-75
2020/12/02 02:48:27;;;;;;;22.37;9.23;;;;;;;4.04;100.00;98133.06;5071695;28;20282;-75
2020/12/02 02:50:53;;;;;;;21.10;9.50;;;;;;;4.02;100.00;98135.03;5071455;28;20575;-76
2020/12/02 02:53:22;;;;;;;20.50;9.33;;;;;;;4.11;100.00;98134.91;5067598;28;20201;-74
2020/12/02 02:55:50;;;;;;;21.67;10.53;;;;;;;4.00;100.00;98137.00;5070035;28;20201;-75
2020/12/02 02:58:18;;;;;;;22.40;9.90;;;;;;;3.82;100.00;98128.31;5071498;28;20544;-76
2020/12/02 03:00:45;;;;;;;22.73;8.27;;;;;;;3.93;100.00;98128.91;5071802;28;20229;-77
2020/12/02 03:03:13;;;;;;;18.23;9.20;;;;;;;4.22;100.00;98124.06;5070018;28;20212;-75
2020/12/02 03:05:40;;;;;;;22.47;9.00;;;;;;;3.90;100.00;98131.84;5071685;28;20220;-75
2020/12/02 03:08:10;;;;;;;18.57;8.07;;;;;;;4.01;100.00;98134.19;5071571;28;20211;-74
2020/12/02 03:10:40;;;;;;;18.50;9.00;;;;;;;4.41;100.00;98131.75;5071325;28;20728;-75
2020/12/02 03:13:18;;;;;;;21.10;9.03;;;;;;;4.14;100.00;98134.63;5067727;28;20192;-74
2020/12/02 03:15:46;;;;;;;16.87;8.27;;;;;;;4.17;100.00;98125.53;5071398;28;20661;-74
2020/12/02 03:18:13;;;;;;;21.43;9.23;;;;;;;3.91;100.00;98133.47;5071202;28;20215;-74
2020/12/02 03:20:43;;;;;;;21.17;8.80;;;;;;;3.81;100.00;98132.75;5071489;28;20221;-76
2020/12/02 03:23:11;;;;;;;22.13;9.40;;;;;;;3.92;100.00;98126.41;5071445;28;20592;-75
2020/12/02 03:25:39;;;;;;;21.40;9.90;;;;;;;3.76;100.00;98132.41;5071588;28;20277;-76
2020/12/02 03:28:06;;;;;;;19.40;8.43;;;;;;;4.21;100.00;98134.81;5068741;28;20582;-76
2020/12/02 03:30:34;;;;;;;19.50;8.77;;;;;;;3.87;100.00;98132.13;5070897;28;20236;-75
2020/12/02 03:33:01;;;;;;;20.93;9.57;;;;;;;3.92;100.00;98126.41;5071021;28;20207;-77
2020/12/02 03:35:28;;;;;;;22.27;8.63;;;;;;;4.24;100.00;98124.75;5071428;28;20198;-75
2020/12/02 03:37:54;;;;;;;21.37;9.63;;;;;;;4.44;100.00;98130.59;5071259;28;20207;-73
2020/12/02 03:40:21;;;;;;;20.93;8.43;;;;;;;3.91;100.00;98133.47;5072192;28;20297;-76
2020/12/02 03:42:48;;;;;;;21.23;8.73;;;;;;;3.82;100.00;98131.78;5074428;28;20220;-76
2020/12/02 03:45:15;;;;;;;21.97;9.43;;;;;;;4.10;100.00;98130.63;5074963;28;20210;-73
2020/12/02 03:47:42;;;;;;;23.73;9.87;;;;;;;4.07;100.00;98130.91;5074712;28;20224;-74
2020/12/02 03:50:11;;;;;;;20.93;9.73;;;;;;;4.20;100.00;98128.69;5075269;28;20199;-76
2020/12/02 03:52:38;;;;;;;19.73;9.00;;;;;;;4.17;100.00;98131.63;5074618;28;20554;-75
2020/12/02 03:55:05;;;;;;;22.53;9.47;;;;;;;4.09;100.00;98130.78;5074908;28;20206;-72
2020/12/02 03:57:32;;;;;;;20.07;9.10;;;;;;;4.29;100.00;98130.38;5074244;28;20208;-73
2020/12/02 03:59:59;;;;;;;20.13;8.83;;;;;;;4.14;100.00;98129.31;5074602;28;20308;-74
2020/12/02 04:02:26;;;;;;;17.10;8.80;;;;;;;3.76;100.00;98126.31;5074495;28;20308;-76
2020/12/02 04:04:53;;;;;;;22.07;9.07;;;;;;;3.88;100.00;98132.97;5074389;28;20666;-74
2020/12/02 04:07:20;;;;;;;20.27;8.90;;;;;;;4.11;100.00;98128.81;5074431;28;20227;-76
2020/12/02 04:09:47;;;;;;;20.10;9.23;;;;;;;4.28;100.00;98122.63;5074193;28;20205;-73
2020/12/02 04:12:14;;;;;;;20.77;9.47;;;;;;;4.14;100.00;98124.03;5074282;28;20225;-75
2020/12/02 04:14:41;;;;;;;22.80;10.07;;;;;;;4.22;100.00;98121.44;5074189;28;20208;-75
2020/12/02 04:17:07;;;;;;;20.23;9.10;;;;;;;4.49;100.00;98120.38;5074698;28;20202;-75
2020/12/02 04:19:34;;;;;;;20.60;9.03;;;;;;;4.67;100.00;98121.09;5074085;28;20208;-72
2020/12/02 04:22:02;;;;;;;21.53;10.00;;;;;;;4.29;100.00;98122.47;5074251;28;20227;-73
2020/12/02 04:24:29;;;;;;;19.87;9.57;;;;;;;4.16;100.00;98121.25;5070451;28;20201;-75
2020/12/02 04:26:55;;;;;;;20.03;9.20;;;;;;;4.26;100.00;98120.13;5074542;28;20225;-74
2020/12/02 04:29:22;;;;;;;22.33;8.60;;;;;;;4.40;100.00;98124.81;5074607;28;20572;-76
2020/12/02 04:31:49;;;;;;;17.47;9.00;;;;;;;4.08;100.00;98116.75;5073477;28;20217;-74
2020/12/02 04:34:16;;;;;;;22.00;9.47;;;;;;;4.16;100.00;98118.63;5074261;28;20221;-74
2020/12/02 04:36:47;;;;;;;18.83;9.30;;;;;;;4.05;100.00;98114.44;5074238;28;20194;-76
2020/12/02 04:39:15;;;;;;;20.63;9.70;;;;;;;4.32;100.00;98116.03;5067451;28;20215;-75
2020/12/02 04:41:42;;;;;;;19.77;9.40;;;;;;;4.30;100.00;98113.53;5072955;28;20313;-73
2020/12/02 04:44:10;;;;;;;19.27;9.63;;;;;;;4.11;100.00;98111.16;5073418;28;20206;-74
2020/12/02 04:46:37;;;;;;;21.07;9.57;;;;;;;3.93;100.00;98113.06;5073793;28;20221;-78
2020/12/02 04:49:11;;;;;;;20.10;9.20;;;;;;;4.32;100.00;98110.75;5074244;28;20212;-74
2020/12/02 04:51:38;;;;;;;18.63;9.53;;;;;;;3.82;100.00;98104.56;5069576;28;20229;-76
2020/12/02 04:54:05;;;;;;;21.33;9.30;;;;;;;4.09;100.00;98114.94;5073622;28;20216;-74
2020/12/02 04:56:33;;;;;;;20.70;9.57;;;;;;;4.18;100.00;98108.72;5073183;28;20670;-75
2020/12/02 04:59:00;;;;;;;21.17;8.63;;;;;;;4.28;100.00;98107.59;5073808;28;20212;-73
2020/12/02 05:01:29;;;;;;;17.17;8.17;;;;;;;4.17;100.00;98110.50;5082996;22;20221;-73
2020/12/02 05:04:00;;;;;;;20.87;9.43;;;;;;;3.81;100.00;98105.56;5077108;28;20205;-75
2020/12/02 05:06:35;;;;;;;17.77;8.90;;;;;;;4.21;100.00;98105.75;5073255;28;20229;-73
2020/12/02 05:09:08;;;;;;;19.57;9.83;;;;;;;4.20;100.00;98107.56;5066378;28;20213;-73
2020/12/02 05:11:35;;;;;;;24.83;10.57;;;;;;;3.79;100.00;98107.50;5066729;28;20228;-76
2020/12/02 05:14:07;;;;;;;20.23;9.33;;;;;;;4.08;100.00;98108.00;5063828;28;20205;-73
2020/12/02 05:16:34;;;;;;;23.93;9.70;;;;;;;3.91;100.00;98120.28;5064294;28;20208;-75
2020/12/02 05:19:06;;;;;;;18.77;8.47;;;;;;;4.14;100.00;98115.28;5066215;28;20207;-75
2020/12/02 05:21:40;;;;;;;20.70;9.93;;;;;;;4.08;100.00;98111.47;5071162;28;20233;-76
2020/12/02 05:24:10;;;;;;;18.30;8.60;;;;;;;4.06;100.00;98116.06;5071574;28;20213;-76
2020/12/02 05:26:40;;;;;;;21.13;9.27;;;;;;;4.52;100.00;98118.25;5070363;28;20370;-76
2020/12/02 05:29:23;;;;;;;17.07;9.03;;;;;;;4.42;100.00;98116.72;5071109;28;20241;-75
2020/12/02 05:31:51;;;;;;;20.83;9.40;;;;;;;4.02;100.00;98124.47;5069238;28;20226;-75
2020/12/02 05:34:19;;;;;;;20.97;9.97;;;;;;;3.94;100.00;98127.06;5070104;28;20211;-74
2020/12/02 05:36:49;;;;;;;20.60;10.97;;;;;;;3.76;100.00;98123.69;5071608;28;20201;-73
2020/12/02 05:39:21;;;;;;;18.40;9.83;;;;;;;4.13;100.00;98126.84;5069471;28;20210;-73
2020/12/02 05:41:52;;;;;;;18.23;9.03;;;;;;;4.26;100.00;98125.41;5069173;28;20240;-75
2020/12/02 05:44:31;;;;;;;20.30;9.20;;;;;;;4.13;100.00;98124.19;5071782;28;20296;-73
2020/12/02 05:47:00;;;;;;;16.97;8.77;;;;;;;4.18;100.00;98127.19;5068630;28;20225;-73
2020/12/02 05:49:41;;;;;;;22.00;9.83;;;;;;;4.18;100.00;98119.28;5069881;28;20208;-73
2020/12/02 05:52:13;;;;;;;22.07;9.30;;;;;;;3.86;100.00;98127.84;5060586;28;20230;-74
2020/12/02 05:54:41;;;;;;;19.93;8.97;;;;;;;4.09;100.00;98123.69;5065845;28;20209;-73
2020/12/02 05:57:11;;;;;;;15.83;8.30;;;;;;;4.18;100.00;98121.91;5063983;28;20267;-74
2020/12/02 05:59:38;;;;;;;19.00;9.00;;;;;;;4.02;100.00;98116.56;5072353;28;20229;-75
2020/12/02 06:02:05;;;;;;;16.57;8.27;;;;;;;4.34;100.00;98108.75;5069555;28;20241;-75
2020/12/02 06:04:33;;;;;;;18.07;8.37;;;;;;;4.45;100.00;98111.13;5068576;28;20636;-75
2020/12/02 06:06:59;;;;;;;21.23;8.80;;;;;;;4.19;100.00;98113.84;5068661;28;20228;-75
2020/12/02 06:09:43;;;;;;;20.70;8.60;;;;;;;4.17;100.00;98115.78;5066220;28;20289;-75
2020/12/02 06:12:15;;;;;;;18.97;8.47;;;;;;;4.18;100.00;98120.09;5070680;28;20328;-74
2020/12/02 06:14:42;;;;;;;19.43;8.73;;;;;;;4.27;100.00;98127.06;5066908;28;20209;-74
2020/12/02 06:17:14;;;;;;;20.93;8.87;;;;;;;4.50;100.00;98119.38;5066693;28;20226;-75
2020/12/02 06:19:49;;;;;;;15.10;7.60;;;;;;;4.34;100.00;98117.53;5071238;28;20206;-74
2020/12/02 06:22:34;;;;;;;16.27;8.80;;;;;;;4.15;100.00;98119.56;5064575;28;20275;-73
2020/12/02 06:25:01;;;;;;;21.50;10.17;;;;;;;3.91;100.00;98120.28;5066253;28;20208;-74
2020/12/02 06:27:42;;;;;;;17.97;8.53;;;;;;;4.33;100.00;98115.03;5070494;28;20228;-73
2020/12/02 06:30:22;;;;;;;20.13;9.23;;;;;;;4.30;100.00;98118.81;5066908;28;20210;-74
2020/12/02 06:32:59;;;;;;;20.87;8.80;;;;;;;4.66;100.00;98117.63;5069292;28;20256;-74
2020/12/02 06:35:26;;;;;;;21.67;8.93;;;;;;;4.51;100.00;98105.19;5066208;28;20677;-75
2020/12/02 06:38:25;;;;;;;19.23;8.17;;;;;;;4.49;100.00;98115.94;5069123;28;20197;-76
2020/12/02 06:41:21;;;;;;;19.60;8.07;;;;;;;4.43;100.00;98121.03;5066127;28;20274;-78
2020/12/02 06:43:57;;;;;;;17.67;8.77;;;;;;;4.37;100.00;98111.91;5059483;28;20222;-76
2020/12/02 06:47:17;;;;;;;16.63;8.63;;;;;;;4.38;100.00;98110.09;5071582;28;20206;-76
2020/12/02 06:49:44;;;;;;;16.20;8.73;;;;;;;4.01;100.00;98109.63;5059727;28;20203;-77
2020/12/02 06:52:26;;;;;;;19.60;9.00;;;;;;;4.55;100.00;98112.66;5067398;28;20470;-79
2020/12/02 06:55:01;;;;;;;21.33;8.63;;;;;;;4.55;100.00;98107.34;5069293;28;20201;-75
2020/12/02 06:57:29;;;;;;;18.33;8.53;;;;;;;4.80;100.00;98110.88;5066786;28;20595;-80
2020/12/02 06:59:59;;;;;;;17.73;8.53;;;;;;;4.83;100.00;98107.91;5067612;28;20285;-77
2020/12/02 07:02:43;;;;;;;16.53;8.73;;;;;;;4.55;100.00;98110.00;5070666;28;20233;-74
2020/12/02 07:05:16;;;;;;;17.43;8.77;;;;;;;4.50;100.00;98109.66;5071095;28;20207;-73
2020/12/02 07:07:43;;;;;;;18.23;8.80;;;;;;;4.49;100.00;98108.00;5062058;28;20297;-72
2020/12/02 07:10:18;;;;;;;18.90;9.20;;;;;;;4.53;100.00;98114.59;5066353;28;20213;-74
2020/12/02 07:12:45;;;;;;;19.97;8.90;;;;;;;4.33;100.00;98107.13;5069276;28;20307;-75
2020/12/02 07:15:15;;;;;;;23.63;9.60;;;;;;;3.95;100.00;98108.44;5070964;28;20210;-85
2020/12/02 07:17:43;;;;;;;24.13;9.50;;;;;;;3.75;100.00;98114.91;5077203;28;20194;-83
2020/12/02 07:20:14;;;;;;;18.73;8.17;;;;;;;4.02;100.00;98121.84;5081317;28;20208;-83
2020/12/02 07:22:52;;;;;;;20.60;9.27;;;;;;;3.85;100.00;98123.56;5072938;28;20239;-75
2020/12/02 07:25:19;;;;;;;19.87;8.10;;;;;;;4.04;100.00;98123.34;5079761;28;20208;-77
2020/12/02 07:27:46;;;;;;;22.80;8.37;;;;;;;4.24;100.00;98119.47;5070079;28;20545;-77
2020/12/02 07:30:35;;;;;;;18.70;9.13;;;;;;;4.08;100.00;98121.19;5081947;28;20302;-78
2020/12/02 07:33:18;;;;;;;17.23;8.23;;;;;;;4.18;100.00;98120.09;5076116;28;20232;-78
2020/12/02 07:35:45;;;;;;;21.80;9.67;;;;;;;4.12;100.00;98115.44;5078118;28;20211;-78
2020/12/02 07:38:14;;;;;;;22.87;8.67;;;;;;;3.86;100.00;98122.56;5069910;28;20637;-78
2020/12/02 07:40:42;;;;;;;20.13;8.97;;;;;;;4.14;100.00;98120.56;5075813;28;20579;-79
2020/12/02 07:43:17;;;;;;;18.90;8.50;;;;;;;4.06;100.00;98123.19;5068571;28;20210;-77
2020/12/02 07:45:45;;;;;;;24.77;9.93;;;;;;;3.98;100.00;98128.41;5077328;28;20213;-78
2020/12/02 07:48:14;;;;;;;21.00;9.17;;;;;;;3.84;100.00;98126.34;5071308;28;20653;-78
2020/12/02 07:50:43;;;;;;;25.87;9.33;;;;;;;3.85;100.00;98117.44;5075186;28;20300;-78
2020/12/02 07:53:16;;;;;;;20.07;9.03;;;;;;;4.05;100.00;98119.69;5068322;28;20240;-78
2020/12/02 07:55:45;;;;;;;21.20;8.53;;;;;;;4.15;100.00;98109.84;5077784;28;20205;-78
2020/12/02 07:58:14;;;;;;;21.63;8.90;;;;;;;4.42;100.00;98114.91;5078269;28;20205;-78
2020/12/02 08:00:43;;;;;;;17.80;7.93;;;;;;;4.74;100.00;98112.38;5072623;28;20210;-78
2020/12/02 08:03:28;;;;;;;18.60;8.83;;;;;;;4.20;100.00;98122.56;5096270;28;20243;-78
2020/12/02 08:06:01;;;;;;;20.50;8.60;;;;;;;4.37;100.00;98125.13;5094592;28;20205;-77
2020/12/02 08:08:27;;;;;;;20.93;9.17;;;;;;;4.27;100.00;98118.31;5084606;28;20222;-78
2020/12/02 08:11:04;;;;;;;19.80;8.80;;;;;;;4.60;100.00;98125.38;5074562;28;20205;-78
2020/12/02 08:13:32;;;;;;;21.37;9.50;;;;;;;4.31;100.00;98124.94;5080460;28;20232;-78
2020/12/02 08:16:00;;;;;;;21.47;8.80;;;;;;;4.42;100.00;98119.38;5077825;28;20291;-78
2020/12/02 08:18:28;;;;;;;17.97;7.37;;;;;;;4.33;100.00;98122.97;5076908;28;20201;-78
2020/12/02 08:21:07;;;;;;;22.53;9.37;;;;;;;4.59;100.00;98121.06;5074828;28;20206;-78
2020/12/02 08:23:35;;;;;;;20.33;8.63;;;;;;;4.39;100.00;98127.59;5071591;28;20214;-78
2020/12/02 08:26:09;;;;;;;20.33;8.10;;;;;;;4.46;100.00;98124.16;5071352;28;20202;-78
2020/12/02 08:28:38;;;;;;;18.30;8.63;;;;;;;4.71;100.00;98128.53;5075002;28;20229;-78
2020/12/02 08:31:15;;;;;;;19.37;9.20;;;;;;;4.53;100.00;98132.28;5074774;28;20225;-78
2020/12/02 08:33:41;;;;;;;19.57;8.50;;;;;;;4.53;100.00;98121.72;5073493;28;20232;-77
2020/12/02 08:36:10;;;;;;;20.10;8.03;;;;;;;4.38;100.00;98118.88;5082211;28;20209;-78
2020/12/02 08:38:38;;;;;;;20.63;7.70;;;;;;;4.56;100.00;98119.56;5068767;28;20201;-78
2020/12/02 08:41:14;;;;;;;21.90;10.40;;;;;;;4.57;100.00;98115.94;5074473;28;20690;-77
2020/12/02 08:43:46;;;;;;;22.03;9.03;;;;;;;4.43;100.00;98115.75;5075482;28;20200;-77
2020/12/02 08:46:20;;;;;;;19.37;8.47;;;;;;;4.43;100.00;98119.19;5070236;28;20575;-77
2020/12/02 08:48:50;;;;;;;20.60;8.77;;;;;;;4.12;100.00;98122.56;5065892;28;20199;-77
2020/12/02 08:51:20;;;;;;;18.40;8.03;;;;;;;4.08;100.00;98129.97;5073541;28;20320;-79
2020/12/02 08:53:47;;;;;;;21.37;7.97;;;;;;;4.09;100.00;98122.84;5065960;28;20204;-79
2020/12/02 08:56:30;;;;;;;18.63;8.97;;;;;;;3.93;100.00;98120.97;5070411;28;20217;-79
2020/12/02 08:58:57;;;;;;;18.07;8.23;;;;;;;3.77;100.00;98120.03;5071178;28;20212;-79
2020/12/02 09:01:24;;;;;;;16.17;7.43;;;;;;;3.85;100.00;98123.56;5068082;28;20224;-79
2020/12/02 09:03:51;;;;;;;17.70;7.77;;;;;;;3.81;100.00;98119.56;5073327;28;20292;-79
2020/12/02 09:06:20;;;;;;;16.63;7.67;;;;;;;3.76;100.00;98119.19;5072607;28;20216;-79
2020/12/02 09:08:47;;;;;;;12.73;7.13;;;;;;;4.08;100.00;98114.13;5073032;28;20228;-79
2020/12/02 09:11:19;;;;;;;18.30;7.00;;;;;;;3.85;100.00;98107.72;5072327;28;20727;-77
2020/12/02 09:13:47;;;;;;;15.67;7.63;;;;;;;3.86;100.00;98106.72;5070997;28;20198;-79
2020/12/02 09:16:18;;;;;;;18.27;7.47;;;;;;;3.82;100.00;98105.38;5063784;28;20201;-79
2020/12/02 09:18:45;;;;;;;17.33;6.80;;;;;;;3.81;100.00;98113.47;5072955;28;20205;-79
2020/12/02 09:21:11;;;;;;;18.33;8.17;;;;;;;4.02;100.00;98104.16;5068336;28;20224;-74
2020/12/02 09:23:38;;;;;;;21.03;9.63;;;;;;;3.89;100.00;98108.22;5073513;28;20197;-76
2020/12/02 09:26:05;;;;;;;16.63;7.43;;;;;;;3.67;100.00;98109.56;5073617;28;20207;-77
2020/12/02 09:28:32;;;;;;;15.33;8.30;;;;;;;3.51;100.00;98104.19;5073370;28;20240;-77
2020/12/02 09:31:02;;;;;;;13.73;6.80;;;;;;;3.78;100.00;98100.59;5072952;28;20216;-77
2020/12/02 09:33:29;;;;;;;12.23;6.10;;;;;;;3.65;100.00;98101.00;5070199;28;20204;-76
2020/12/02 09:35:55;;;;;;;15.90;6.17;;;;;;;3.77;100.00;98098.94;5073161;28;20196;-76
2020/12/02 09:38:22;;;;;;;12.27;6.20;;;;;;;3.65;100.00;98098.34;5072751;28;21818;-78
2020/12/02 09:40:50;;;;;;;14.83;5.63;;;;;;;3.91;100.00;98093.88;5073288;28;20201;-75
2020/12/02 09:43:33;;;;;;;13.97;6.77;;;;;;;4.16;100.00;98092.19;5073280;28;20579;-75
2020/12/02 09:46:05;;;;;;;13.47;6.30;;;;;;;4.01;100.00;98088.50;5071691;28;20220;-74
2020/12/02 09:48:33;;;;;;;15.57;6.67;;;;;;;4.12;100.00;98088.22;5070348;28;20213;-75
2020/12/02 09:50:59;;;;;;;14.53;6.30;;;;;;;3.80;100.00;98086.25;5070820;28;20201;-76
2020/12/02 09:53:28;;;;;;;13.50;5.93;;;;;;;3.87;100.00;98086.44;5066022;28;20210;-75
2020/12/02 09:55:55;;;;;;;14.60;6.50;;;;;;;4.02;100.00;98082.22;5071195;28;20208;-75
2020/12/02 09:58:23;;;;;;;12.30;6.50;;;;;;;3.87;100.00;98079.34;5065974;28;20542;-74
2020/12/02 10:00:51;;;;;;;16.87;7.20;;;;;;;3.80;100.00;98073.03;5072819;28;20201;-76
2020/12/02 10:04:06;;;;;;;13.30;6.17;;;;;;;3.66;100.00;98078.09;5075180;28;20200;-77
2020/12/02 10:06:54;;;;;;;13.77;6.43;;;;;;;4.44;100.00;98061.91;5058666;28;20216;-75
2020/12/02 10:09:35;;;;;;;12.80;5.97;;;;;;;4.26;100.00;98064.66;5071933;28;20209;-76
2020/12/02 10:12:09;;;;;;;14.27;6.33;;;;;;;4.03;100.00;98057.47;5062166;28;20226;-75
2020/12/02 10:15:01;;;;;;;13.73;5.53;;;;;;;4.24;100.00;98055.25;5072350;28;20200;-75
2020/12/02 10:17:41;;;;;;;17.27;6.97;;;;;;;4.37;100.00;98051.16;5070082;28;20208;-75
2020/12/02 10:20:23;;;;;;;19.10;7.27;;;;;;;4.06;100.00;98047.41;5064643;28;20650;-75
2020/12/02 10:23:16;;;;;;;17.47;8.10;;;;;;;4.24;100.00;98039.41;5067417;28;20525;-75
2020/12/02 10:26:16;;;;;;;17.10;6.80;;;;;;;4.10;100.00;98040.00;5071467;28;20576;-74
2020/12/02 10:28:50;;;;;;;18.50;8.30;;;;;;;4.33;100.00;98033.16;5062255;28;20222;-75
2020/12/02 10:31:22;;;;;;;19.67;8.27;;;;;;;5.23;100.00;98033.91;5070431;28;20221;-75
2020/12/02 10:33:55;;;;;;;22.93;9.07;;;;;;;6.23;100.00;98019.88;5074934;28;20289;-74
2020/12/02 10:36:24;;;;;;;28.90;9.20;;;;;;;5.96;100.00;98014.19;5066983;28;20197;-74
2020/12/02 10:38:54;;;;;;;22.97;9.50;;;;;;;5.15;100.00;98018.00;5072746;28;20200;-75
2020/12/02 10:41:29;;;;;;;22.20;9.73;;;;;;;4.65;100.00;98010.25;5072217;28;20300;-74
2020/12/02 10:44:18;;;;;;;20.13;8.37;;;;;;;4.47;100.00;98006.13;5072589;28;20200;-74
2020/12/02 10:47:01;;;;;;;20.37;8.13;;;;;;;4.67;100.00;97999.53;5072264;28;20624;-75
2020/12/02 10:49:29;;;;;;;18.87;8.83;;;;;;;4.69;100.00;97992.25;5079944;28;20202;-73
2020/12/02 10:51:59;;;;;;;21.67;9.47;;;;;;;4.52;100.00;97996.69;5079564;28;20225;-74
2020/12/02 10:54:32;;;;;;;18.80;7.77;;;;;;;4.68;100.00;97987.97;5090434;28;20202;-73
2020/12/02 10:56:59;;;;;;;24.37;8.97;;;;;;;4.35;100.00;97984.44;5091271;28;20179;-74
2020/12/02 10:59:26;;;;;;;20.17;9.00;;;;;;;4.40;100.00;97976.88;5084240;28;20234;-77
2020/12/02 11:01:53;;;;;;;20.10;9.27;;;;;;;4.36;100.00;97980.00;5076606;28;20234;-79
2020/12/02 11:04:21;;;;;;;23.73;9.30;;;;;;;4.40;100.00;97982.16;5069281;28;20214;-76
2020/12/02 11:07:08;;;;;;;17.90;7.83;;;;;;;4.64;100.00;97978.69;5074523;28;20200;-77
2020/12/02 11:09:51;;;;;;;21.40;9.17;;;;;;;4.61;100.00;97973.72;5073805;28;20209;-77
2020/12/02 11:12:43;;;;;;;19.23;9.03;;;;;;;4.38;100.00;97973.56;5068276;28;20579;-77
2020/12/02 11:15:18;;;;;;;21.20;8.90;;;;;;;4.79;100.00;97962.03;5067394;28;20201;-77
2020/12/02 11:18:00;;;;;;;19.63;8.03;;;;;;;4.58;100.00;97964.31;5073294;28;20208;-77
2020/12/02 11:20:32;;;;;;;23.30;8.83;;;;;;;4.59;100.00;97957.22;5072489;28;20237;-77
2020/12/02 11:23:10;;;;;;;20.03;9.27;;;;;;;4.50;100.00;97963.50;5070432;28;20311;-77
2020/12/02 11:25:44;;;;;;;21.23;8.47;;;;;;;4.70;100.00;97948.97;5069212;28;20204;-77
2020/12/02 11:28:11;;;;;;;17.57;7.80;;;;;;;5.23;100.00;97944.75;5079096;28;20287;-78
2020/12/02 11:30:40;;;;;;;20.57;8.87;;;;;;;4.58;100.00;97940.53;5085089;28;20659;-78
2020/12/02 11:33:34;;;;;;;20.53;8.80;;;;;;;4.50;100.00;97945.00;5079222;28;20224;-77
2020/12/02 11:36:34;;;;;;;20.57;8.10;;;;;;;4.62;100.00;97947.16;5073517;28;20206;-78
2020/12/02 11:39:17;;;;;;;23.53;8.93;;;;;;;4.53;100.00;97942.84;5072161;28;20206;-77
2020/12/02 11:41:51;;;;;;;19.67;7.63;;;;;;;4.59;100.00;97944.00;5072475;28;20225;-78
2020/12/02 11:44:26;;;;;;;20.43;8.77;;;;;;;4.40;100.00;97934.59;5074572;28;20685;-79